sensor_id;sensor_type;location;lat;lon;timestamp;P1;durP1;ratioP1;P2;durP2;ratioP2
3343;SDS011;1685;53.104;8.228;2024-03-08T00:02:03;33.70;;;20.90;;
3343;SDS011;1685;53.104;8.228;2024-03-08T00:04:32;39.73;;;19.63;;
3343;SDS011;1685;53.104;8.228;2024-03-08T00:06:59;36.10;;;18.70;;
3343;SDS011;1685;53.104;8.228;2024-03-08T00:09:26;35.90;;;19.13;;
3343;SDS011;1685;53.104;8.228;2024-03-08T00:11:55;36.00;;;18.97;;
3343;SDS011;1685;53.104;8.228;2024-03-08T00:14:23;34.67;;;19.00;;
3343;SDS011;1685;53.104;8.228;2024-03-08T00:16:50;32.20;;;18.60;;
3343;SDS011;1685;53.104;8.228;2024-03-08T00:19:17;37.97;;;18.63;;
3343;SDS011;1685;53.104;8.228;2024-03-08T00:21:46;32.73;;;17.90;;
3343;SDS011;1685;53.104;8.228;2024-03-08T00:24:13;35.07;;;19.43;;
3343;SDS011;1685;53.104;8.228;2024-03-08T00:26:40;34.70;;;19.63;;
3343;SDS011;1685;53.104;8.228;2024-03-08T00:29:08;37.73;;;20.10;;
3343;SDS011;1685;53.104;8.228;2024-03-08T00:31:35;30.90;;;18.33;;
3343;SDS011;1685;53.104;8.228;2024-03-08T00:34:02;39.80;;;18.93;;
3343;SDS011;1685;53.104;8.228;2024-03-08T00:36:29;41.57;;;20.30;;
3343;SDS011;1685;53.104;8.228;2024-03-08T00:38:58;32.47;;;17.60;;
3343;SDS011;1685;53.104;8.228;2024-03-08T00:41:25;40.00;;;20.60;;
3343;SDS011;1685;53.104;8.228;2024-03-08T00:43:52;35.27;;;18.90;;
3343;SDS011;1685;53.104;8.228;2024-03-08T00:46:20;46.37;;;19.33;;
3343;SDS011;1685;53.104;8.228;2024-03-08T00:48:47;31.53;;;17.90;;
3343;SDS011;1685;53.104;8.228;2024-03-08T00:51:14;37.70;;;21.07;;
3343;SDS011;1685;53.104;8.228;2024-03-08T00:53:41;39.23;;;19.60;;
3343;SDS011;1685;53.104;8.228;2024-03-08T00:56:10;35.93;;;19.53;;
3343;SDS011;1685;53.104;8.228;2024-03-08T00:58:37;30.93;;;18.13;;
3343;SDS011;1685;53.104;8.228;2024-03-08T01:01:05;31.30;;;18.10;;
3343;SDS011;1685;53.104;8.228;2024-03-08T01:03:32;33.70;;;18.00;;
3343;SDS011;1685;53.104;8.228;2024-03-08T01:05:59;34.63;;;17.40;;
3343;SDS011;1685;53.104;8.228;2024-03-08T01:08:26;39.20;;;17.80;;
3343;SDS011;1685;53.104;8.228;2024-03-08T01:10:54;36.93;;;19.17;;
3343;SDS011;1685;53.104;8.228;2024-03-08T01:13:22;42.73;;;18.50;;
3343;SDS011;1685;53.104;8.228;2024-03-08T01:15:49;33.60;;;17.83;;
3343;SDS011;1685;53.104;8.228;2024-03-08T01:18:16;34.90;;;17.47;;
3343;SDS011;1685;53.104;8.228;2024-03-08T01:20:44;34.93;;;17.77;;
3343;SDS011;1685;53.104;8.228;2024-03-08T01:23:12;32.83;;;17.53;;
3343;SDS011;1685;53.104;8.228;2024-03-08T01:25:39;36.40;;;19.03;;
3343;SDS011;1685;53.104;8.228;2024-03-08T01:28:07;39.97;;;18.43;;
3343;SDS011;1685;53.104;8.228;2024-03-08T01:30:36;30.93;;;18.50;;
3343;SDS011;1685;53.104;8.228;2024-03-08T01:33:04;31.80;;;17.03;;
3343;SDS011;1685;53.104;8.228;2024-03-08T01:35:30;33.47;;;18.30;;
3343;SDS011;1685;53.104;8.228;2024-03-08T01:37:58;29.20;;;16.73;;
3343;SDS011;1685;53.104;8.228;2024-03-08T01:40:25;30.97;;;17.67;;
3343;SDS011;1685;53.104;8.228;2024-03-08T01:42:52;26.57;;;16.10;;
3343;SDS011;1685;53.104;8.228;2024-03-08T01:45:19;32.83;;;18.67;;
3343;SDS011;1685;53.104;8.228;2024-03-08T01:47:48;33.23;;;17.03;;
3343;SDS011;1685;53.104;8.228;2024-03-08T01:50:15;42.13;;;17.27;;
3343;SDS011;1685;53.104;8.228;2024-03-08T01:52:42;35.40;;;16.10;;
3343;SDS011;1685;53.104;8.228;2024-03-08T01:55:10;48.40;;;17.53;;
3343;SDS011;1685;53.104;8.228;2024-03-08T01:57:39;36.57;;;19.00;;
3343;SDS011;1685;53.104;8.228;2024-03-08T02:00:07;31.37;;;17.83;;
3343;SDS011;1685;53.104;8.228;2024-03-08T02:02:36;32.70;;;17.27;;
3343;SDS011;1685;53.104;8.228;2024-03-08T02:05:05;33.93;;;17.57;;
3343;SDS011;1685;53.104;8.228;2024-03-08T02:07:33;31.23;;;18.73;;
3343;SDS011;1685;53.104;8.228;2024-03-08T02:10:01;30.53;;;17.93;;
3343;SDS011;1685;53.104;8.228;2024-03-08T02:12:28;32.93;;;16.80;;
3343;SDS011;1685;53.104;8.228;2024-03-08T02:14:55;24.40;;;16.43;;
3343;SDS011;1685;53.104;8.228;2024-03-08T02:17:22;29.80;;;17.10;;
3343;SDS011;1685;53.104;8.228;2024-03-08T02:19:50;39.20;;;17.47;;
3343;SDS011;1685;53.104;8.228;2024-03-08T02:22:18;33.00;;;16.33;;
3343;SDS011;1685;53.104;8.228;2024-03-08T02:24:45;31.10;;;16.67;;
3343;SDS011;1685;53.104;8.228;2024-03-08T02:27:12;26.27;;;14.70;;
3343;SDS011;1685;53.104;8.228;2024-03-08T02:29:40;28.63;;;16.50;;
3343;SDS011;1685;53.104;8.228;2024-03-08T02:32:09;26.03;;;16.70;;
3343;SDS011;1685;53.104;8.228;2024-03-08T02:34:36;26.83;;;15.80;;
3343;SDS011;1685;53.104;8.228;2024-03-08T02:37:04;27.63;;;15.87;;
3343;SDS011;1685;53.104;8.228;2024-03-08T02:39:33;35.30;;;16.17;;
3343;SDS011;1685;53.104;8.228;2024-03-08T02:42:00;37.77;;;18.37;;
3343;SDS011;1685;53.104;8.228;2024-03-08T02:44:28;28.70;;;15.53;;
3343;SDS011;1685;53.104;8.228;2024-03-08T02:46:55;30.50;;;16.33;;
3343;SDS011;1685;53.104;8.228;2024-03-08T02:49:22;27.37;;;14.37;;
3343;SDS011;1685;53.104;8.228;2024-03-08T02:51:49;27.50;;;14.10;;
3343;SDS011;1685;53.104;8.228;2024-03-08T02:54:16;31.50;;;17.60;;
3343;SDS011;1685;53.104;8.228;2024-03-08T02:56:45;29.40;;;15.80;;
3343;SDS011;1685;53.104;8.228;2024-03-08T02:59:15;31.63;;;17.87;;
3343;SDS011;1685;53.104;8.228;2024-03-08T03:01:42;34.90;;;17.07;;
3343;SDS011;1685;53.104;8.228;2024-03-08T03:04:10;29.70;;;14.80;;
3343;SDS011;1685;53.104;8.228;2024-03-08T03:06:37;30.77;;;16.47;;
3343;SDS011;1685;53.104;8.228;2024-03-08T03:09:04;31.13;;;16.20;;
3343;SDS011;1685;53.104;8.228;2024-03-08T03:11:32;27.67;;;15.10;;
3343;SDS011;1685;53.104;8.228;2024-03-08T03:14:00;33.70;;;17.03;;
3343;SDS011;1685;53.104;8.228;2024-03-08T03:16:27;26.33;;;16.40;;
3343;SDS011;1685;53.104;8.228;2024-03-08T03:18:54;24.40;;;15.53;;
3343;SDS011;1685;53.104;8.228;2024-03-08T03:21:24;29.43;;;16.10;;
3343;SDS011;1685;53.104;8.228;2024-03-08T03:23:51;27.83;;;16.70;;
3343;SDS011;1685;53.104;8.228;2024-03-08T03:26:18;33.83;;;16.50;;
3343;SDS011;1685;53.104;8.228;2024-03-08T03:28:47;33.87;;;18.37;;
3343;SDS011;1685;53.104;8.228;2024-03-08T03:31:15;31.50;;;15.50;;
3343;SDS011;1685;53.104;8.228;2024-03-08T03:33:43;27.30;;;15.80;;
3343;SDS011;1685;53.104;8.228;2024-03-08T03:36:12;32.57;;;16.87;;
3343;SDS011;1685;53.104;8.228;2024-03-08T03:38:39;31.27;;;15.80;;
3343;SDS011;1685;53.104;8.228;2024-03-08T03:41:06;26.47;;;15.40;;
3343;SDS011;1685;53.104;8.228;2024-03-08T03:43:35;28.90;;;15.10;;
3343;SDS011;1685;53.104;8.228;2024-03-08T03:46:05;32.57;;;15.27;;
3343;SDS011;1685;53.104;8.228;2024-03-08T03:48:33;34.10;;;17.10;;
3343;SDS011;1685;53.104;8.228;2024-03-08T03:51:00;28.90;;;15.20;;
3343;SDS011;1685;53.104;8.228;2024-03-08T03:53:28;29.90;;;16.23;;
3343;SDS011;1685;53.104;8.228;2024-03-08T03:55:55;25.90;;;15.90;;
3343;SDS011;1685;53.104;8.228;2024-03-08T03:58:22;29.93;;;16.63;;
3343;SDS011;1685;53.104;8.228;2024-03-08T04:00:49;33.47;;;15.83;;
3343;SDS011;1685;53.104;8.228;2024-03-08T04:03:17;27.87;;;16.47;;
3343;SDS011;1685;53.104;8.228;2024-03-08T04:05:45;26.47;;;14.70;;
3343;SDS011;1685;53.104;8.228;2024-03-08T04:08:12;32.90;;;17.53;;
3343;SDS011;1685;53.104;8.228;2024-03-08T04:10:39;39.93;;;16.67;;
3343;SDS011;1685;53.104;8.228;2024-03-08T04:13:07;28.30;;;16.20;;
3343;SDS011;1685;53.104;8.228;2024-03-08T04:15:35;30.00;;;16.70;;
3343;SDS011;1685;53.104;8.228;2024-03-08T04:18:03;24.50;;;15.40;;
3343;SDS011;1685;53.104;8.228;2024-03-08T04:20:30;37.10;;;17.53;;
3343;SDS011;1685;53.104;8.228;2024-03-08T04:22:58;27.83;;;16.00;;
3343;SDS011;1685;53.104;8.228;2024-03-08T04:25:25;29.67;;;16.80;;
3343;SDS011;1685;53.104;8.228;2024-03-08T04:27:53;27.27;;;16.10;;
3343;SDS011;1685;53.104;8.228;2024-03-08T04:30:20;32.73;;;16.00;;
3343;SDS011;1685;53.104;8.228;2024-03-08T04:32:47;30.17;;;16.80;;
3343;SDS011;1685;53.104;8.228;2024-03-08T04:35:15;32.87;;;16.73;;
3343;SDS011;1685;53.104;8.228;2024-03-08T04:37:42;38.77;;;18.53;;
3343;SDS011;1685;53.104;8.228;2024-03-08T04:40:11;26.43;;;16.47;;
3343;SDS011;1685;53.104;8.228;2024-03-08T04:42:38;28.70;;;17.77;;
3343;SDS011;1685;53.104;8.228;2024-03-08T04:45:06;33.43;;;17.80;;
3343;SDS011;1685;53.104;8.228;2024-03-08T04:47:35;35.30;;;18.77;;
3343;SDS011;1685;53.104;8.228;2024-03-08T04:50:03;30.80;;;16.67;;
3343;SDS011;1685;53.104;8.228;2024-03-08T04:52:30;31.20;;;16.00;;
3343;SDS011;1685;53.104;8.228;2024-03-08T04:54:57;34.73;;;16.87;;
3343;SDS011;1685;53.104;8.228;2024-03-08T04:57:26;36.57;;;18.73;;
3343;SDS011;1685;53.104;8.228;2024-03-08T04:59:53;38.13;;;18.70;;
3343;SDS011;1685;53.104;8.228;2024-03-08T05:02:20;34.33;;;16.87;;
3343;SDS011;1685;53.104;8.228;2024-03-08T05:04:47;33.97;;;18.50;;
3343;SDS011;1685;53.104;8.228;2024-03-08T05:07:15;35.83;;;17.53;;
3343;SDS011;1685;53.104;8.228;2024-03-08T05:09:42;35.43;;;17.57;;
3343;SDS011;1685;53.104;8.228;2024-03-08T05:12:16;36.37;;;18.80;;
3343;SDS011;1685;53.104;8.228;2024-03-08T05:14:44;36.73;;;19.77;;
3343;SDS011;1685;53.104;8.228;2024-03-08T05:17:11;39.63;;;19.13;;
3343;SDS011;1685;53.104;8.228;2024-03-08T05:19:38;32.60;;;17.87;;
3343;SDS011;1685;53.104;8.228;2024-03-08T05:22:06;32.03;;;17.30;;
3343;SDS011;1685;53.104;8.228;2024-03-08T05:24:33;34.60;;;18.87;;
3343;SDS011;1685;53.104;8.228;2024-03-08T05:27:00;34.70;;;19.27;;
3343;SDS011;1685;53.104;8.228;2024-03-08T05:29:28;35.70;;;19.60;;
3343;SDS011;1685;53.104;8.228;2024-03-08T05:31:57;40.03;;;18.70;;
3343;SDS011;1685;53.104;8.228;2024-03-08T05:34:24;30.73;;;16.70;;
3343;SDS011;1685;53.104;8.228;2024-03-08T05:36:53;37.37;;;18.77;;
3343;SDS011;1685;53.104;8.228;2024-03-08T05:39:20;34.27;;;17.03;;
3343;SDS011;1685;53.104;8.228;2024-03-08T05:41:48;31.67;;;18.47;;
3343;SDS011;1685;53.104;8.228;2024-03-08T05:44:16;27.10;;;16.30;;
3343;SDS011;1685;53.104;8.228;2024-03-08T05:46:43;35.03;;;18.43;;
3343;SDS011;1685;53.104;8.228;2024-03-08T05:49:12;31.33;;;17.67;;
3343;SDS011;1685;53.104;8.228;2024-03-08T05:51:40;29.53;;;16.90;;
3343;SDS011;1685;53.104;8.228;2024-03-08T05:54:08;32.70;;;18.07;;
3343;SDS011;1685;53.104;8.228;2024-03-08T05:56:36;34.77;;;18.47;;
3343;SDS011;1685;53.104;8.228;2024-03-08T05:59:03;34.23;;;18.73;;
3343;SDS011;1685;53.104;8.228;2024-03-08T06:01:30;35.30;;;18.83;;
3343;SDS011;1685;53.104;8.228;2024-03-08T06:03:58;36.10;;;20.03;;
3343;SDS011;1685;53.104;8.228;2024-03-08T06:06:26;33.27;;;17.60;;
3343;SDS011;1685;53.104;8.228;2024-03-08T06:08:53;31.67;;;19.00;;
3343;SDS011;1685;53.104;8.228;2024-03-08T06:11:21;35.30;;;18.43;;
3343;SDS011;1685;53.104;8.228;2024-03-08T06:13:49;35.40;;;18.93;;
3343;SDS011;1685;53.104;8.228;2024-03-08T06:16:16;36.50;;;19.73;;
3343;SDS011;1685;53.104;8.228;2024-03-08T06:18:43;34.07;;;18.40;;
3343;SDS011;1685;53.104;8.228;2024-03-08T06:21:12;35.10;;;19.90;;
3343;SDS011;1685;53.104;8.228;2024-03-08T06:23:40;38.07;;;19.40;;
3343;SDS011;1685;53.104;8.228;2024-03-08T06:26:07;35.53;;;19.83;;
3343;SDS011;1685;53.104;8.228;2024-03-08T06:28:34;47.30;;;19.53;;
3343;SDS011;1685;53.104;8.228;2024-03-08T06:31:02;37.77;;;18.97;;
3343;SDS011;1685;53.104;8.228;2024-03-08T06:33:29;41.13;;;19.53;;
3343;SDS011;1685;53.104;8.228;2024-03-08T06:35:57;39.93;;;20.43;;
3343;SDS011;1685;53.104;8.228;2024-03-08T06:38:24;35.20;;;19.73;;
3343;SDS011;1685;53.104;8.228;2024-03-08T06:40:53;41.53;;;21.60;;
3343;SDS011;1685;53.104;8.228;2024-03-08T06:43:20;38.67;;;21.53;;
3343;SDS011;1685;53.104;8.228;2024-03-08T06:45:47;37.40;;;20.20;;
3343;SDS011;1685;53.104;8.228;2024-03-08T06:48:14;42.33;;;21.83;;
3343;SDS011;1685;53.104;8.228;2024-03-08T06:50:42;42.03;;;21.60;;
3343;SDS011;1685;53.104;8.228;2024-03-08T06:53:09;54.30;;;21.50;;
3343;SDS011;1685;53.104;8.228;2024-03-08T06:55:37;39.00;;;21.33;;
3343;SDS011;1685;53.104;8.228;2024-03-08T06:58:05;42.23;;;20.33;;
3343;SDS011;1685;53.104;8.228;2024-03-08T07:00:32;38.80;;;20.70;;
3343;SDS011;1685;53.104;8.228;2024-03-08T07:03:01;39.10;;;20.90;;
3343;SDS011;1685;53.104;8.228;2024-03-08T07:05:28;43.30;;;23.10;;
3343;SDS011;1685;53.104;8.228;2024-03-08T07:07:55;41.40;;;20.87;;
3343;SDS011;1685;53.104;8.228;2024-03-08T07:10:23;40.53;;;21.23;;
3343;SDS011;1685;53.104;8.228;2024-03-08T07:12:51;50.53;;;20.83;;
3343;SDS011;1685;53.104;8.228;2024-03-08T07:15:20;43.97;;;21.40;;
3343;SDS011;1685;53.104;8.228;2024-03-08T07:17:48;38.40;;;22.00;;
3343;SDS011;1685;53.104;8.228;2024-03-08T07:20:17;37.03;;;21.27;;
3343;SDS011;1685;53.104;8.228;2024-03-08T07:22:44;34.57;;;19.83;;
3343;SDS011;1685;53.104;8.228;2024-03-08T07:25:13;38.90;;;20.57;;
3343;SDS011;1685;53.104;8.228;2024-03-08T07:27:47;38.27;;;21.07;;
3343;SDS011;1685;53.104;8.228;2024-03-08T07:30:14;30.80;;;19.50;;
3343;SDS011;1685;53.104;8.228;2024-03-08T07:33:04;30.97;;;20.10;;
3343;SDS011;1685;53.104;8.228;2024-03-08T07:35:32;31.77;;;17.53;;
3343;SDS011;1685;53.104;8.228;2024-03-08T07:38:01;33.53;;;18.70;;
3343;SDS011;1685;53.104;8.228;2024-03-08T07:40:29;36.40;;;18.93;;
3343;SDS011;1685;53.104;8.228;2024-03-08T07:42:56;31.60;;;19.60;;
3343;SDS011;1685;53.104;8.228;2024-03-08T07:45:24;32.70;;;20.43;;
3343;SDS011;1685;53.104;8.228;2024-03-08T07:47:51;31.50;;;19.97;;
3343;SDS011;1685;53.104;8.228;2024-03-08T07:50:20;28.70;;;18.77;;
3343;SDS011;1685;53.104;8.228;2024-03-08T07:52:47;35.20;;;19.80;;
3343;SDS011;1685;53.104;8.228;2024-03-08T07:55:15;29.27;;;18.10;;
3343;SDS011;1685;53.104;8.228;2024-03-08T07:57:42;36.10;;;18.03;;
3343;SDS011;1685;53.104;8.228;2024-03-08T08:00:09;30.63;;;18.47;;
3343;SDS011;1685;53.104;8.228;2024-03-08T08:02:42;29.87;;;19.93;;
3343;SDS011;1685;53.104;8.228;2024-03-08T08:05:10;31.13;;;17.80;;
3343;SDS011;1685;53.104;8.228;2024-03-08T08:07:39;28.63;;;18.47;;
3343;SDS011;1685;53.104;8.228;2024-03-08T08:10:09;32.60;;;17.70;;
3343;SDS011;1685;53.104;8.228;2024-03-08T08:12:41;32.33;;;18.37;;
3343;SDS011;1685;53.104;8.228;2024-03-08T08:15:09;27.43;;;17.70;;
3343;SDS011;1685;53.104;8.228;2024-03-08T08:17:36;32.83;;;18.80;;
3343;SDS011;1685;53.104;8.228;2024-03-08T08:20:04;33.87;;;19.53;;
3343;SDS011;1685;53.104;8.228;2024-03-08T08:22:31;25.63;;;16.90;;
3343;SDS011;1685;53.104;8.228;2024-03-08T08:24:59;32.60;;;18.40;;
3343;SDS011;1685;53.104;8.228;2024-03-08T08:27:26;28.97;;;16.97;;
3343;SDS011;1685;53.104;8.228;2024-03-08T08:29:54;34.17;;;19.37;;
3343;SDS011;1685;53.104;8.228;2024-03-08T08:32:22;32.53;;;19.60;;
3343;SDS011;1685;53.104;8.228;2024-03-08T08:34:49;29.70;;;17.77;;
3343;SDS011;1685;53.104;8.228;2024-03-08T08:37:16;33.97;;;18.63;;
3343;SDS011;1685;53.104;8.228;2024-03-08T08:39:43;32.13;;;18.13;;
3343;SDS011;1685;53.104;8.228;2024-03-08T08:42:12;27.87;;;18.30;;
3343;SDS011;1685;53.104;8.228;2024-03-08T08:44:39;32.42;;;16.17;;
3343;SDS011;1685;53.104;8.228;2024-03-08T08:47:06;42.50;;;19.80;;
3343;SDS011;1685;53.104;8.228;2024-03-08T08:49:33;30.93;;;19.33;;
3343;SDS011;1685;53.104;8.228;2024-03-08T08:52:00;35.03;;;18.60;;
3343;SDS011;1685;53.104;8.228;2024-03-08T08:54:28;35.87;;;18.30;;
3343;SDS011;1685;53.104;8.228;2024-03-08T08:56:56;32.03;;;17.50;;
3343;SDS011;1685;53.104;8.228;2024-03-08T08:59:24;31.97;;;18.40;;
3343;SDS011;1685;53.104;8.228;2024-03-08T09:01:51;32.83;;;19.27;;
3343;SDS011;1685;53.104;8.228;2024-03-08T09:04:19;28.63;;;18.20;;
3343;SDS011;1685;53.104;8.228;2024-03-08T09:06:48;30.07;;;19.23;;
3343;SDS011;1685;53.104;8.228;2024-03-08T09:09:15;29.40;;;18.03;;
3343;SDS011;1685;53.104;8.228;2024-03-08T09:11:42;31.63;;;19.40;;
3343;SDS011;1685;53.104;8.228;2024-03-08T09:14:11;35.73;;;18.87;;
3343;SDS011;1685;53.104;8.228;2024-03-08T09:16:40;25.27;;;17.00;;
3343;SDS011;1685;53.104;8.228;2024-03-08T09:19:07;29.80;;;18.03;;
3343;SDS011;1685;53.104;8.228;2024-03-08T09:21:36;29.00;;;17.80;;
3343;SDS011;1685;53.104;8.228;2024-03-08T09:24:04;31.23;;;18.07;;
3343;SDS011;1685;53.104;8.228;2024-03-08T09:26:32;26.57;;;16.90;;
3343;SDS011;1685;53.104;8.228;2024-03-08T09:28:59;30.13;;;19.23;;
3343;SDS011;1685;53.104;8.228;2024-03-08T09:31:26;29.07;;;16.67;;
3343;SDS011;1685;53.104;8.228;2024-03-08T09:33:55;25.87;;;17.30;;
3343;SDS011;1685;53.104;8.228;2024-03-08T09:36:22;26.23;;;16.67;;
3343;SDS011;1685;53.104;8.228;2024-03-08T09:38:50;28.53;;;15.97;;
3343;SDS011;1685;53.104;8.228;2024-03-08T09:41:18;26.67;;;16.97;;
3343;SDS011;1685;53.104;8.228;2024-03-08T09:43:45;27.57;;;17.53;;
3343;SDS011;1685;53.104;8.228;2024-03-08T09:46:12;27.00;;;17.10;;
3343;SDS011;1685;53.104;8.228;2024-03-08T09:48:41;27.80;;;17.47;;
3343;SDS011;1685;53.104;8.228;2024-03-08T09:51:10;24.80;;;16.33;;
3343;SDS011;1685;53.104;8.228;2024-03-08T09:53:40;27.27;;;17.00;;
3343;SDS011;1685;53.104;8.228;2024-03-08T09:56:07;29.00;;;17.93;;
3343;SDS011;1685;53.104;8.228;2024-03-08T09:58:34;32.90;;;16.97;;
3343;SDS011;1685;53.104;8.228;2024-03-08T10:01:18;27.73;;;17.83;;
3343;SDS011;1685;53.104;8.228;2024-03-08T10:03:46;30.33;;;17.17;;
3343;SDS011;1685;53.104;8.228;2024-03-08T10:06:18;22.77;;;15.60;;
3343;SDS011;1685;53.104;8.228;2024-03-08T10:08:49;27.33;;;17.50;;
3343;SDS011;1685;53.104;8.228;2024-03-08T10:11:17;27.10;;;16.40;;
3343;SDS011;1685;53.104;8.228;2024-03-08T10:13:45;27.37;;;17.90;;
3343;SDS011;1685;53.104;8.228;2024-03-08T10:16:13;26.07;;;16.90;;
3343;SDS011;1685;53.104;8.228;2024-03-08T10:18:42;28.03;;;17.50;;
3343;SDS011;1685;53.104;8.228;2024-03-08T10:21:10;23.20;;;16.90;;
3343;SDS011;1685;53.104;8.228;2024-03-08T10:23:39;25.23;;;17.27;;
3343;SDS011;1685;53.104;8.228;2024-03-08T10:26:11;28.97;;;18.20;;
3343;SDS011;1685;53.104;8.228;2024-03-08T10:28:40;34.87;;;18.17;;
3343;SDS011;1685;53.104;8.228;2024-03-08T10:31:08;25.80;;;17.00;;
3343;SDS011;1685;53.104;8.228;2024-03-08T10:33:35;31.73;;;18.40;;
3343;SDS011;1685;53.104;8.228;2024-03-08T10:36:05;26.00;;;17.17;;
3343;SDS011;1685;53.104;8.228;2024-03-08T10:38:33;24.80;;;18.30;;
3343;SDS011;1685;53.104;8.228;2024-03-08T10:41:04;26.93;;;17.60;;
3343;SDS011;1685;53.104;8.228;2024-03-08T10:43:32;30.00;;;17.97;;
3343;SDS011;1685;53.104;8.228;2024-03-08T10:46:11;28.93;;;18.90;;
3343;SDS011;1685;53.104;8.228;2024-03-08T10:48:54;26.67;;;17.00;;
3343;SDS011;1685;53.104;8.228;2024-03-08T10:51:23;26.93;;;18.37;;
3343;SDS011;1685;53.104;8.228;2024-03-08T10:53:51;29.10;;;17.70;;
3343;SDS011;1685;53.104;8.228;2024-03-08T10:56:21;27.23;;;18.17;;
3343;SDS011;1685;53.104;8.228;2024-03-08T10:58:47;30.77;;;18.80;;
3343;SDS011;1685;53.104;8.228;2024-03-08T11:01:15;28.13;;;17.50;;
3343;SDS011;1685;53.104;8.228;2024-03-08T11:03:45;25.10;;;17.03;;
3343;SDS011;1685;53.104;8.228;2024-03-08T11:06:18;32.40;;;20.00;;
3343;SDS011;1685;53.104;8.228;2024-03-08T11:08:48;31.03;;;19.40;;
3343;SDS011;1685;53.104;8.228;2024-03-08T11:11:26;31.10;;;18.27;;
3343;SDS011;1685;53.104;8.228;2024-03-08T11:13:56;31.27;;;19.50;;
3343;SDS011;1685;53.104;8.228;2024-03-08T11:16:36;28.97;;;19.37;;
3343;SDS011;1685;53.104;8.228;2024-03-08T11:19:06;32.07;;;19.03;;
3343;SDS011;1685;53.104;8.228;2024-03-08T11:21:56;26.33;;;17.47;;
3343;SDS011;1685;53.104;8.228;2024-03-08T11:24:24;26.13;;;17.17;;
3343;SDS011;1685;53.104;8.228;2024-03-08T11:26:55;25.23;;;16.87;;
3343;SDS011;1685;53.104;8.228;2024-03-08T11:29:38;28.30;;;17.43;;
3343;SDS011;1685;53.104;8.228;2024-03-08T11:32:09;30.20;;;19.17;;
3343;SDS011;1685;53.104;8.228;2024-03-08T11:34:38;30.37;;;19.87;;
3343;SDS011;1685;53.104;8.228;2024-03-08T11:37:10;27.83;;;18.17;;
3343;SDS011;1685;53.104;8.228;2024-03-08T11:39:39;29.50;;;19.50;;
3343;SDS011;1685;53.104;8.228;2024-03-08T11:42:08;31.47;;;19.80;;
3343;SDS011;1685;53.104;8.228;2024-03-08T11:44:36;29.03;;;18.20;;
3343;SDS011;1685;53.104;8.228;2024-03-08T11:47:07;32.80;;;18.23;;
3343;SDS011;1685;53.104;8.228;2024-03-08T11:49:35;26.60;;;18.10;;
3343;SDS011;1685;53.104;8.228;2024-03-08T11:52:02;29.93;;;18.90;;
3343;SDS011;1685;53.104;8.228;2024-03-08T11:54:30;28.10;;;18.63;;
3343;SDS011;1685;53.104;8.228;2024-03-08T11:56:57;29.30;;;19.67;;
3343;SDS011;1685;53.104;8.228;2024-03-08T11:59:27;28.50;;;19.30;;
3343;SDS011;1685;53.104;8.228;2024-03-08T12:01:59;30.30;;;19.53;;
3343;SDS011;1685;53.104;8.228;2024-03-08T12:04:28;26.93;;;18.70;;
3343;SDS011;1685;53.104;8.228;2024-03-08T12:06:56;30.40;;;19.50;;
3343;SDS011;1685;53.104;8.228;2024-03-08T12:09:23;28.63;;;18.30;;
3343;SDS011;1685;53.104;8.228;2024-03-08T12:11:50;28.03;;;17.97;;
3343;SDS011;1685;53.104;8.228;2024-03-08T12:14:17;27.60;;;18.47;;
3343;SDS011;1685;53.104;8.228;2024-03-08T12:16:47;28.53;;;18.70;;
3343;SDS011;1685;53.104;8.228;2024-03-08T12:19:14;28.23;;;18.37;;
3343;SDS011;1685;53.104;8.228;2024-03-08T12:21:41;33.57;;;19.00;;
3343;SDS011;1685;53.104;8.228;2024-03-08T12:24:14;27.37;;;18.23;;
3343;SDS011;1685;53.104;8.228;2024-03-08T12:26:44;30.23;;;18.80;;
3343;SDS011;1685;53.104;8.228;2024-03-08T12:29:16;26.83;;;16.93;;
3343;SDS011;1685;53.104;8.228;2024-03-08T12:31:49;25.67;;;18.30;;
3343;SDS011;1685;53.104;8.228;2024-03-08T12:34:18;26.53;;;17.33;;
3343;SDS011;1685;53.104;8.228;2024-03-08T12:36:45;26.53;;;16.93;;
3343;SDS011;1685;53.104;8.228;2024-03-08T12:39:17;25.93;;;17.63;;
3343;SDS011;1685;53.104;8.228;2024-03-08T12:41:47;27.30;;;17.80;;
3343;SDS011;1685;53.104;8.228;2024-03-08T12:44:16;27.47;;;18.77;;
3343;SDS011;1685;53.104;8.228;2024-03-08T12:46:44;25.43;;;16.47;;
3343;SDS011;1685;53.104;8.228;2024-03-08T12:49:12;24.60;;;16.97;;
3343;SDS011;1685;53.104;8.228;2024-03-08T12:51:42;29.17;;;18.10;;
3343;SDS011;1685;53.104;8.228;2024-03-08T12:54:10;25.40;;;16.90;;
3343;SDS011;1685;53.104;8.228;2024-03-08T12:56:37;23.83;;;16.47;;
3343;SDS011;1685;53.104;8.228;2024-03-08T12:59:05;26.77;;;18.20;;
3343;SDS011;1685;53.104;8.228;2024-03-08T13:01:33;25.20;;;17.60;;
3343;SDS011;1685;53.104;8.228;2024-03-08T13:04:02;21.73;;;15.70;;
3343;SDS011;1685;53.104;8.228;2024-03-08T13:06:33;25.10;;;17.33;;
3343;SDS011;1685;53.104;8.228;2024-03-08T13:09:00;26.30;;;17.73;;
3343;SDS011;1685;53.104;8.228;2024-03-08T13:11:30;33.83;;;15.70;;
3343;SDS011;1685;53.104;8.228;2024-03-08T13:14:02;28.30;;;17.37;;
3343;SDS011;1685;53.104;8.228;2024-03-08T13:16:30;24.40;;;15.97;;
3343;SDS011;1685;53.104;8.228;2024-03-08T13:18:59;24.27;;;14.33;;
3343;SDS011;1685;53.104;8.228;2024-03-08T13:21:27;21.33;;;15.63;;
3343;SDS011;1685;53.104;8.228;2024-03-08T13:23:56;25.70;;;16.67;;
3343;SDS011;1685;53.104;8.228;2024-03-08T13:26:25;23.70;;;15.70;;
3343;SDS011;1685;53.104;8.228;2024-03-08T13:28:57;23.80;;;16.00;;
3343;SDS011;1685;53.104;8.228;2024-03-08T13:31:25;24.73;;;16.77;;
3343;SDS011;1685;53.104;8.228;2024-03-08T13:33:52;29.33;;;16.23;;
3343;SDS011;1685;53.104;8.228;2024-03-08T13:36:23;23.50;;;16.73;;
3343;SDS011;1685;53.104;8.228;2024-03-08T13:38:54;26.23;;;16.40;;
3343;SDS011;1685;53.104;8.228;2024-03-08T13:41:25;22.87;;;15.90;;
3343;SDS011;1685;53.104;8.228;2024-03-08T13:43:52;27.40;;;15.83;;
3343;SDS011;1685;53.104;8.228;2024-03-08T13:46:20;24.00;;;16.40;;
3343;SDS011;1685;53.104;8.228;2024-03-08T13:48:49;27.07;;;16.40;;
3343;SDS011;1685;53.104;8.228;2024-03-08T13:51:18;28.50;;;16.40;;
3343;SDS011;1685;53.104;8.228;2024-03-08T13:53:47;26.50;;;16.80;;
3343;SDS011;1685;53.104;8.228;2024-03-08T13:56:14;30.47;;;18.40;;
3343;SDS011;1685;53.104;8.228;2024-03-08T13:58:43;26.20;;;18.10;;
3343;SDS011;1685;53.104;8.228;2024-03-08T14:01:10;25.87;;;17.03;;
3343;SDS011;1685;53.104;8.228;2024-03-08T14:03:37;28.23;;;17.53;;
3343;SDS011;1685;53.104;8.228;2024-03-08T14:06:06;25.83;;;16.50;;
3343;SDS011;1685;53.104;8.228;2024-03-08T14:08:34;20.47;;;15.80;;
3343;SDS011;1685;53.104;8.228;2024-03-08T14:11:02;26.60;;;16.93;;
3343;SDS011;1685;53.104;8.228;2024-03-08T14:13:36;26.20;;;17.73;;
3343;SDS011;1685;53.104;8.228;2024-03-08T14:16:07;25.57;;;16.80;;
3343;SDS011;1685;53.104;8.228;2024-03-08T14:18:35;23.83;;;16.87;;
3343;SDS011;1685;53.104;8.228;2024-03-08T14:21:03;24.23;;;16.20;;
3343;SDS011;1685;53.104;8.228;2024-03-08T14:23:30;26.90;;;17.20;;
3343;SDS011;1685;53.104;8.228;2024-03-08T14:25:57;22.33;;;15.17;;
3343;SDS011;1685;53.104;8.228;2024-03-08T14:28:25;27.30;;;15.80;;
3343;SDS011;1685;53.104;8.228;2024-03-08T14:30:53;22.83;;;16.43;;
3343;SDS011;1685;53.104;8.228;2024-03-08T14:33:22;23.47;;;16.47;;
3343;SDS011;1685;53.104;8.228;2024-03-08T14:35:50;25.30;;;17.17;;
3343;SDS011;1685;53.104;8.228;2024-03-08T14:38:18;25.70;;;16.63;;
3343;SDS011;1685;53.104;8.228;2024-03-08T14:40:45;26.60;;;16.27;;
3343;SDS011;1685;53.104;8.228;2024-03-08T14:43:13;27.37;;;17.03;;
3343;SDS011;1685;53.104;8.228;2024-03-08T14:45:41;24.73;;;16.33;;
3343;SDS011;1685;53.104;8.228;2024-03-08T14:48:12;24.73;;;17.37;;
3343;SDS011;1685;53.104;8.228;2024-03-08T14:50:41;24.90;;;16.30;;
3343;SDS011;1685;53.104;8.228;2024-03-08T14:53:09;24.37;;;17.13;;
3343;SDS011;1685;53.104;8.228;2024-03-08T14:55:40;28.53;;;17.57;;